Time;durP1;ratioP1;P1;durP2;ratioP2;P2;SDS_P1;SDS_P2;PMS_P1;PMS_P2;Temp;Humidity;BMP_temperature;BMP_pressure;BME280_temperature;BME280_humidity;BME280_pressure;Samples;Min_cycle;Max_cycle;Signal;HPM_P1;HPM_P2
2022/07/05 00:00:46;;;;;;;12.17;6.00;;;23.10;43.20;;;;;;5050572;28;20493;-68
2022/07/05 00:03:11;;;;;;;9.77;6.43;;;23.00;43.60;;;;;;5049631;28;20454;-68
2022/07/05 00:05:38;;;;;;;9.40;6.53;;;22.90;44.20;;;;;;5049260;28;20192;-68
2022/07/05 00:08:05;;;;;;;6.53;5.83;;;23.00;43.90;;;;;;5032275;28;20222;-68
2022/07/05 00:10:31;;;;;;;7.70;6.20;;;22.90;44.40;;;;;;5032554;28;20973;-68
2022/07/05 00:12:57;;;;;;;17.57;5.97;;;22.80;44.30;;;;;;5046959;28;20487;-69
2022/07/05 00:15:23;;;;;;;18.63;7.30;;;22.60;44.10;;;;;;5050113;28;20430;-67
2022/07/05 00:17:48;;;;;;;8.80;6.33;;;22.40;44.80;;;;;;5049420;28;20190;-68
2022/07/05 00:20:14;;;;;;;10.87;6.33;;;22.10;45.20;;;;;;5050012;28;20197;-68
2022/07/05 00:22:40;;;;;;;8.17;6.27;;;22.00;46.10;;;;;;5049978;28;20207;-67
2022/07/05 00:25:06;;;;;;;6.93;6.50;;;21.80;46.10;;;;;;5048850;28;20825;-67
2022/07/05 00:27:32;;;;;;;7.37;6.23;;;21.70;47.70;;;;;;5049633;28;20724;-67
2022/07/05 00:29:57;;;;;;;9.27;6.43;;;22.00;47.20;;;;;;5049730;28;20441;-69
2022/07/05 00:32:23;;;;;;;9.90;6.50;;;22.60;44.80;;;;;;5049053;28;20217;-67
2022/07/05 00:34:49;;;;;;;7.00;6.50;;;22.40;44.80;;;;;;5048688;28;20241;-68
2022/07/05 00:37:14;;;;;;;7.13;6.33;;;22.50;45.30;;;;;;5050112;28;20647;-68
2022/07/05 00:39:40;;;;;;;8.20;6.27;;;22.30;45.40;;;;;;5050093;28;20218;-68
2022/07/05 00:42:06;;;;;;;10.80;6.47;;;22.30;45.20;;;;;;5049238;28;20192;-67
2022/07/05 00:44:35;;;;;;;8.03;5.97;;;22.30;44.80;;;;;;5050039;28;20180;-67
2022/07/05 00:47:02;;;;;;;7.27;6.10;;;22.40;43.40;;;;;;5048795;28;20193;-69
2022/07/05 00:49:28;;;;;;;9.80;6.20;;;22.40;43.90;;;;;;5049112;28;20434;-68
2022/07/05 00:51:54;;;;;;;7.63;6.33;;;22.30;43.80;;;;;;5048326;28;20581;-69
2022/07/05 00:54:20;;;;;;;10.40;7.50;;;22.30;44.30;;;;;;5049973;28;20565;-67
2022/07/05 00:56:46;;;;;;;11.80;7.43;;;22.20;43.80;;;;;;5050766;28;20429;-67
2022/07/05 00:59:12;;;;;;;13.93;9.70;;;22.00;44.70;;;;;;5049890;28;20178;-68
2022/07/05 01:01:37;;;;;;;17.43;9.87;;;22.00;44.50;;;;;;5032001;28;20450;-68
2022/07/05 01:04:03;;;;;;;18.33;9.93;;;22.10;44.80;;;;;;5048493;28;20253;-67
2022/07/05 01:06:29;;;;;;;15.43;9.30;;;22.30;43.80;;;;;;5049273;28;20185;-67
2022/07/05 01:08:55;;;;;;;12.83;8.63;;;22.40;43.60;;;;;;5050661;28;20834;-68
2022/07/05 01:11:20;;;;;;;11.77;7.60;;;22.50;43.60;;;;;;5048850;28;20225;-67
2022/07/05 01:13:46;;;;;;;20.80;8.87;;;22.50;42.20;;;;;;5048603;28;20692;-67
2022/07/05 01:16:13;;;;;;;11.00;7.90;;;22.30;43.80;;;;;;5051007;28;20179;-67
2022/07/05 01:18:39;;;;;;;12.37;8.20;;;22.00;43.50;;;;;;5053233;28;20616;-68
2022/07/05 01:21:05;;;;;;;10.60;8.03;;;21.90;44.20;;;;;;5053426;28;20477;-67
2022/07/05 01:23:32;;;;;;;13.13;8.43;;;21.90;46.10;;;;;;5052329;28;20491;-67
2022/07/05 01:26:02;;;;;;;11.23;8.17;;;21.90;45.10;;;;;;5050603;28;20530;-67
2022/07/05 01:28:28;;;;;;;12.37;8.10;;;22.00;45.90;;;;;;5053559;28;20438;-67
2022/07/05 01:30:54;;;;;;;13.10;8.10;;;21.80;45.30;;;;;;5053323;28;20959;-67
2022/07/05 01:33:27;;;;;;;9.40;7.53;;;21.90;45.10;;;;;;5053162;28;20461;-67
2022/07/05 01:35:53;;;;;;;12.67;8.47;;;21.70;46.80;;;;;;5049442;28;21174;-67
2022/07/05 01:38:18;;;;;;;15.53;7.70;;;21.50;46.90;;;;;;5053141;28;20457;-67
2022/07/05 01:40:44;;;;;;;11.10;7.70;;;21.30;46.80;;;;;;5052234;28;20226;-67
2022/07/05 01:43:10;;;;;;;11.17;7.30;;;21.30;48.10;;;;;;5035049;28;20260;-68
2022/07/05 01:45:44;;;;;;;9.03;7.43;;;21.50;48.60;;;;;;5050886;28;20705;-68
2022/07/05 01:48:12;;;;;;;9.40;7.37;;;21.80;47.60;;;;;;5052745;28;20192;-68
2022/07/05 01:50:49;;;;;;;9.63;7.50;;;21.90;45.10;;;;;;5053173;28;20430;-69
2022/07/05 01:53:19;;;;;;;12.67;7.67;;;22.00;46.70;;;;;;5033666;28;20482;-67
2022/07/05 01:55:45;;;;;;;15.67;7.70;;;21.80;46.80;;;;;;5049789;28;20434;-68
2022/07/05 01:58:11;;;;;;;12.43;8.47;;;21.90;46.60;;;;;;5052486;28;20483;-67
2022/07/05 02:00:48;;;;;;;13.33;8.60;;;21.90;47.90;;;;;;5052838;28;20492;-67
2022/07/05 02:03:15;;;;;;;12.60;8.50;;;21.80;48.20;;;;;;5051511;28;20987;-68
2022/07/05 02:05:43;;;;;;;13.27;7.97;;;21.90;45.40;;;;;;5053073;28;20442;-67
2022/07/05 02:08:10;;;;;;;12.47;8.07;;;22.20;43.70;;;;;;5051429;28;20447;-68
2022/07/05 02:10:37;;;;;;;11.13;8.00;;;21.80;45.70;;;;;;5050819;28;20445;-67
2022/07/05 02:13:03;;;;;;;13.33;8.10;;;21.70;46.10;;;;;;5052018;28;20477;-69
2022/07/05 02:15:37;;;;;;;14.27;7.90;;;21.50;47.80;;;;;;5049457;28;20899;-67
2022/07/05 02:18:04;;;;;;;10.27;8.33;;;21.40;47.90;;;;;;5050963;28;20429;-68
2022/07/05 02:20:31;;;;;;;11.97;8.20;;;21.40;48.30;;;;;;5053004;28;20914;-67
2022/07/05 02:22:57;;;;;;;11.33;8.00;;;21.40;47.70;;;;;;5051052;28;20965;-68
2022/07/05 02:25:23;;;;;;;10.83;8.30;;;21.40;47.20;;;;;;5051337;28;20492;-68
2022/07/05 02:27:49;;;;;;;12.30;7.97;;;21.40;47.00;;;;;;5050885;28;20453;-68
2022/07/05 02:30:15;;;;;;;13.60;8.50;;;21.30;46.90;;;;;;5052119;28;20442;-68
2022/07/05 02:32:41;;;;;;;10.83;8.27;;;21.20;46.90;;;;;;5051688;28;20523;-69
2022/07/05 02:35:09;;;;;;;13.57;8.90;;;21.10;48.70;;;;;;5052232;28;20215;-69
2022/07/05 02:37:35;;;;;;;15.20;10.47;;;21.10;48.40;;;;;;5049742;28;20492;-69
2022/07/05 02:40:00;;;;;;;14.27;10.10;;;21.20;48.80;;;;;;5052312;28;20846;-67
2022/07/05 02:42:26;;;;;;;11.27;9.93;;;21.10;48.90;;;;;;5052737;28;20442;-67
2022/07/05 02:44:51;;;;;;;11.20;9.63;;;21.00;49.20;;;;;;5050793;28;20226;-67
2022/07/05 02:47:17;;;;;;;13.63;9.23;;;21.00;49.70;;;;;;5050626;28;20240;-71
2022/07/05 02:49:43;;;;;;;12.70;8.70;;;20.90;50.50;;;;;;5051871;28;20188;-69
2022/07/05 02:52:09;;;;;;;12.17;8.30;;;21.00;49.10;;;;;;5050655;28;20721;-67
2022/07/05 02:54:34;;;;;;;9.87;8.60;;;21.10;49.10;;;;;;5052088;28;20278;-67
2022/07/05 02:57:00;;;;;;;11.03;8.77;;;21.30;47.20;;;;;;5050384;28;20593;-68
2022/07/05 02:59:26;;;;;;;10.77;8.57;;;21.20;47.20;;;;;;5050149;28;20188;-67
2022/07/05 03:01:51;;;;;;;15.27;8.40;;;21.20;47.70;;;;;;5052340;28;20444;-68
2022/07/05 03:04:17;;;;;;;12.20;7.70;;;21.20;48.10;;;;;;5050851;28;20295;-69
2022/07/05 03:06:43;;;;;;;11.07;8.00;;;21.20;48.00;;;;;;5051315;28;20232;-68
2022/07/05 03:09:09;;;;;;;15.40;7.77;;;21.40;45.40;;;;;;5051467;28;20436;-67
2022/07/05 03:11:36;;;;;;;10.60;7.63;;;21.20;47.20;;;;;;5051473;28;20209;-69
2022/07/05 03:14:02;;;;;;;11.27;8.67;;;20.90;48.10;;;;;;5051300;28;20460;-68
2022/07/05 03:16:29;;;;;;;8.73;7.40;;;20.90;48.90;;;;;;5051764;28;20503;-67
2022/07/05 03:18:54;;;;;;;12.13;8.17;;;20.90;48.40;;;;;;5050856;28;20555;-68
2022/07/05 03:21:20;;;;;;;10.70;7.80;;;20.70;49.00;;;;;;5049924;28;20514;-68
2022/07/05 03:23:46;;;;;;;11.30;8.00;;;20.70;48.70;;;;;;5049936;28;20253;-67
2022/07/05 03:26:11;;;;;;;9.37;7.37;;;20.60;49.50;;;;;;5051264;28;20192;-67
2022/07/05 03:28:37;;;;;;;13.63;8.00;;;20.60;49.40;;;;;;5051313;28;20208;-68
2022/07/05 03:31:02;;;;;;;13.90;8.13;;;20.50;49.40;;;;;;5049657;28;20184;-67
2022/07/05 03:33:28;;;;;;;10.07;8.33;;;20.50;48.30;;;;;;5050917;28;20681;-70
2022/07/05 03:35:53;;;;;;;10.70;8.30;;;20.20;50.80;;;;;;5051379;28;20589;-67
2022/07/05 03:38:19;;;;;;;14.10;7.93;;;20.40;49.70;;;;;;5050749;28;20204;-68
2022/07/05 03:40:45;;;;;;;10.63;8.43;;;20.50;48.60;;;;;;5049339;28;20239;-67
2022/07/05 03:43:10;;;;;;;9.70;8.20;;;20.50;49.50;;;;;;5049479;28;20753;-69
2022/07/05 03:45:36;;;;;;;11.30;8.10;;;20.60;48.80;;;;;;5050973;28;20198;-67
2022/07/05 03:48:01;;;;;;;11.10;8.03;;;20.60;50.00;;;;;;5050585;28;20290;-67
2022/07/05 03:50:28;;;;;;;10.97;8.47;;;20.40;50.20;;;;;;5049761;28;20213;-67
2022/07/05 03:52:53;;;;;;;10.13;7.97;;;20.40;50.40;;;;;;5049330;28;20221;-67
2022/07/05 03:55:19;;;;;;;11.27;8.43;;;20.50;49.00;;;;;;5050711;28;20826;-67
2022/07/05 03:57:45;;;;;;;13.90;8.67;;;20.70;48.60;;;;;;5048982;28;20187;-68
2022/07/05 04:00:12;;;;;;;10.20;8.10;;;20.70;48.70;;;;;;5050220;28;20445;-67
2022/07/05 04:02:38;;;;;;;13.70;8.27;;;20.70;47.80;;;;;;5049930;28;20214;-67
2022/07/05 04:05:04;;;;;;;9.30;8.50;;;20.50;49.00;;;;;;5047168;28;20579;-68
2022/07/05 04:07:30;;;;;;;10.83;8.50;;;20.50;49.50;;;;;;5050724;28;20447;-67
2022/07/05 04:09:55;;;;;;;10.57;8.70;;;20.50;49.50;;;;;;5047866;28;20442;-67
2022/07/05 04:12:21;;;;;;;11.10;8.30;;;20.40;50.30;;;;;;5045099;28;20201;-70
2022/07/05 04:14:47;;;;;;;12.27;8.50;;;20.40;51.50;;;;;;5049863;28;20557;-68
2022/07/05 04:17:12;;;;;;;11.23;8.30;;;20.60;50.20;;;;;;5048870;28;20225;-68
2022/07/05 04:19:38;;;;;;;16.43;8.63;;;20.50;50.50;;;;;;5050213;28;20226;-69
2022/07/05 04:22:04;;;;;;;11.67;8.00;;;20.50;50.60;;;;;;5049024;28;20190;-67
2022/07/05 04:24:29;;;;;;;12.10;8.13;;;20.40;50.30;;;;;;5049842;28;20212;-68
2022/07/05 04:26:55;;;;;;;9.20;7.90;;;20.50;49.90;;;;;;5050838;28;20175;-67
2022/07/05 04:29:21;;;;;;;10.50;7.90;;;20.60;50.10;;;;;;5049129;28;20216;-67
2022/07/05 04:31:47;;;;;;;9.30;7.40;;;20.60;49.10;;;;;;5050428;28;20179;-67
2022/07/05 04:34:12;;;;;;;10.87;8.87;;;20.70;50.50;;;;;;5050460;28;20210;-68
2022/07/05 04:36:40;;;;;;;10.10;7.83;;;20.80;49.60;;;;;;5049932;28;20262;-69
2022/07/05 04:39:06;;;;;;;10.70;8.23;;;20.90;48.60;;;;;;5047840;28;20175;-67
2022/07/05 04:41:32;;;;;;;11.70;8.43;;;21.00;47.50;;;;;;5050483;28;20464;-69
2022/07/05 04:43:58;;;;;;;9.67;8.27;;;20.80;48.00;;;;;;5048919;28;20450;-67
2022/07/05 04:46:23;;;;;;;15.07;9.20;;;20.90;48.10;;;;;;5037970;28;20181;-67
2022/07/05 04:48:49;;;;;;;13.43;9.50;;;21.00;48.80;;;;;;5049990;28;20651;-67
2022/07/05 04:51:15;;;;;;;19.17;10.20;;;21.10;47.70;;;;;;5050910;28;20187;-68
2022/07/05 04:53:41;;;;;;;11.60;9.80;;;20.80;47.60;;;;;;5051884;28;20216;-69
2022/07/05 04:56:07;;;;;;;12.47;8.90;;;20.90;47.90;;;;;;5053904;28;20670;-68
2022/07/05 04:58:33;;;;;;;12.17;8.70;;;20.80;48.50;;;;;;5053951;28;20456;-67
2022/07/05 05:00:59;;;;;;;10.10;8.60;;;21.00;48.20;;;;;;5052917;28;20203;-68
2022/07/05 05:03:25;;;;;;;10.03;7.90;;;21.20;45.90;;;;;;5052813;28;20482;-68
2022/07/05 05:05:50;;;;;;;10.30;8.67;;;21.20;46.40;;;;;;5053692;28;20208;-67
2022/07/05 05:08:16;;;;;;;22.93;10.10;;;20.80;46.20;;;;;;5046134;28;20200;-67
2022/07/05 05:10:41;;;;;;;18.53;10.40;;;20.30;50.00;;;;;;5051964;28;20622;-67
2022/07/05 05:13:07;;;;;;;11.40;8.80;;;20.40;48.80;;;;;;5052444;28;20207;-69
2022/07/05 05:15:32;;;;;;;14.27;10.40;;;20.10;49.50;;;;;;5053839;28;20516;-67
2022/07/05 05:17:58;;;;;;;21.73;11.50;;;19.80;51.50;;;;;;5053134;28;20168;-67
2022/07/05 05:20:24;;;;;;;13.83;10.30;;;19.60;53.70;;;;;;5051221;28;20530;-67
2022/07/05 05:22:49;;;;;;;12.60;9.20;;;19.60;53.80;;;;;;5051886;28;20231;-68
2022/07/05 05:25:16;;;;;;;14.27;8.80;;;19.70;53.50;;;;;;5052433;28;20219;-70
2022/07/05 05:27:46;;;;;;;11.93;10.37;;;19.70;53.20;;;;;;5054026;28;20181;-68
2022/07/05 05:30:13;;;;;;;15.77;9.67;;;20.10;52.20;;;;;;5052851;28;20923;-68
2022/07/05 05:32:39;;;;;;;16.23;10.07;;;20.10;51.00;;;;;;5053378;28;20520;-68
2022/07/05 05:35:05;;;;;;;12.90;8.80;;;20.20;50.80;;;;;;5051329;28;20444;-67
2022/07/05 05:37:31;;;;;;;14.33;9.10;;;20.10;50.80;;;;;;5053324;28;20442;-68
2022/07/05 05:39:57;;;;;;;17.40;10.60;;;19.70;52.10;;;;;;5053405;28;20441;-68
2022/07/05 05:42:22;;;;;;;9.10;7.40;;;19.80;52.10;;;;;;5053075;28;20446;-68
2022/07/05 05:44:48;;;;;;;18.17;7.43;;;20.20;49.30;;;;;;5051668;28;20673;-69
2022/07/05 05:47:13;;;;;;;9.60;7.50;;;20.30;49.00;;;;;;5052907;28;20214;-68
2022/07/05 05:49:39;;;;;;;9.57;8.00;;;21.00;46.30;;;;;;5052835;28;20187;-68
2022/07/05 05:52:05;;;;;;;13.30;7.50;;;21.50;47.20;;;;;;5052502;28;20186;-68
2022/07/05 05:54:30;;;;;;;14.30;7.47;;;21.70;44.80;;;;;;5051582;28;20760;-68
2022/07/05 05:56:56;;;;;;;13.50;6.47;;;21.30;43.40;;;;;;5052499;28;20193;-68
2022/07/05 05:59:22;;;;;;;15.83;6.70;;;21.50;43.10;;;;;;5052356;28;20557;-69
2022/07/05 06:01:47;;;;;;;8.60;5.97;;;21.60;43.20;;;;;;5053165;28;20178;-69
2022/07/05 06:04:13;;;;;;;9.60;6.13;;;21.20;43.10;;;;;;5052129;28;20207;-70
2022/07/05 06:06:38;;;;;;;9.43;6.03;;;20.90;45.30;;;;;;5052259;28;20192;-69
2022/07/05 06:09:04;;;;;;;9.77;6.13;;;20.30;47.60;;;;;;5049251;28;20186;-68
2022/07/05 06:11:30;;;;;;;6.57;5.60;;;20.30;47.90;;;;;;5052370;28;20558;-69
2022/07/05 06:13:55;;;;;;;11.63;5.73;;;20.90;45.20;;;;;;5051989;28;20584;-70
2022/07/05 06:16:21;;;;;;;7.57;5.90;;;21.30;44.40;;;;;;5052076;28;20174;-70
2022/07/05 06:18:47;;;;;;;11.17;7.27;;;20.80;44.80;;;;;;5050300;28;20556;-70
2022/07/05 06:21:12;;;;;;;12.27;6.70;;;21.20;44.80;;;;;;5044495;28;20188;-68
2022/07/05 06:23:38;;;;;;;10.57;5.50;;;21.70;44.40;;;;;;5051652;28;20290;-69
2022/07/05 06:26:03;;;;;;;7.97;5.60;;;21.60;40.20;;;;;;5049361;28;20178;-69
2022/07/05 06:28:30;;;;;;;6.47;5.37;;;21.60;39.20;;;;;;5049698;28;20174;-69
2022/07/05 06:30:56;;;;;;;8.47;5.23;;;21.10;38.50;;;;;;5051020;28;20177;-69
2022/07/05 06:33:21;;;;;;;16.30;5.40;;;21.10;40.20;;;;;;5043690;28;20466;-71
2022/07/05 06:35:47;;;;;;;7.10;5.13;;;21.10;39.70;;;;;;5052403;28;20207;-69
2022/07/05 06:38:13;;;;;;;7.10;5.07;;;21.40;37.80;;;;;;5050888;28;20678;-69
2022/07/05 06:40:43;;;;;;;5.47;4.57;;;21.80;38.30;;;;;;5050002;28;20188;-69
2022/07/05 06:43:11;;;;;;;5.80;4.70;;;22.40;37.90;;;;;;5047235;28;20670;-69
2022/07/05 06:45:37;;;;;;;12.67;5.10;;;22.70;35.00;;;;;;5051830;28;20428;-68
2022/07/05 06:48:06;;;;;;;5.80;4.53;;;22.60;36.20;;;;;;5050129;28;20682;-68
2022/07/05 06:50:35;;;;;;;8.90;5.03;;;22.60;30.70;;;;;;5049002;28;20486;-68
2022/07/05 06:53:01;;;;;;;6.47;4.40;;;22.50;34.00;;;;;;5051172;28;22083;-69
2022/07/05 06:55:27;;;;;;;6.73;4.10;;;22.90;31.50;;;;;;5050438;28;20437;-68
2022/07/05 06:57:58;;;;;;;8.03;4.77;;;22.10;32.00;;;;;;5052012;28;20894;-68
2022/07/05 07:00:24;;;;;;;12.37;4.30;;;22.00;32.80;;;;;;5049018;28;20421;-68
2022/07/05 07:02:49;;;;;;;11.83;4.33;;;21.60;33.50;;;;;;5050502;28;20998;-68
2022/07/05 07:05:15;;;;;;;6.13;4.50;;;21.80;34.20;;;;;;5048411;28;20180;-68
2022/07/05 07:10:25;;;;;;;10.07;4.13;;;22.10;33.50;;;;;;5051566;28;20315;-68
2022/07/05 07:12:50;;;;;;;6.13;4.50;;;21.70;33.60;;;;;;5027752;28;20556;-68
2022/07/05 07:15:16;;;;;;;8.47;4.50;;;21.50;34.40;;;;;;5048519;28;20181;-67
2022/07/05 07:17:41;;;;;;;8.00;3.83;;;21.90;32.60;;;;;;5051068;28;20178;-68
2022/07/05 07:20:08;;;;;;;6.20;4.23;;;21.80;32.30;;;;;;5052233;28;20279;-67
2022/07/05 07:22:33;;;;;;;4.87;4.03;;;21.70;33.40;;;;;;5051055;28;20197;-68
2022/07/05 07:24:59;;;;;;;6.13;4.17;;;21.60;32.30;;;;;;5050865;28;20438;-68
2022/07/05 07:27:25;;;;;;;5.13;4.17;;;21.60;31.90;;;;;;5051416;28;20175;-68
2022/07/05 07:29:50;;;;;;;6.20;3.90;;;22.10;31.20;;;;;;5033993;28;20180;-68
2022/07/05 07:32:16;;;;;;;11.30;3.80;;;22.40;29.30;;;;;;5049985;28;20199;-68
2022/07/05 07:34:42;;;;;;;7.13;3.67;;;21.90;30.30;;;;;;5051179;28;20176;-67
2022/07/05 07:37:13;;;;;;;8.07;4.03;;;22.40;29.20;;;;;;5051537;28;20519;-68
2022/07/05 07:39:39;;;;;;;6.77;4.17;;;22.50;28.90;;;;;;5034238;28;20173;-67
2022/07/05 07:42:06;;;;;;;5.30;3.97;;;22.40;29.30;;;;;;5049221;28;20503;-68
2022/07/05 07:44:31;;;;;;;9.10;4.27;;;22.50;29.90;;;;;;5049867;28;20947;-68
2022/07/05 07:46:57;;;;;;;6.30;4.70;;;22.80;29.60;;;;;;5051590;28;20433;-68
2022/07/05 07:49:22;;;;;;;6.90;4.43;;;22.80;29.50;;;;;;5051619;28;20194;-67
2022/07/05 07:51:48;;;;;;;5.47;4.10;;;22.80;29.60;;;;;;5051505;28;20217;-68
2022/07/05 07:54:14;;;;;;;7.83;4.13;;;23.00;30.00;;;;;;5050750;28;20709;-68
2022/07/05 07:56:40;;;;;;;5.73;4.47;;;22.40;31.80;;;;;;5051597;28;20591;-68
2022/07/05 07:59:05;;;;;;;7.97;4.40;;;22.30;31.80;;;;;;5051486;28;20175;-68
2022/07/05 08:01:31;;;;;;;7.10;4.27;;;22.50;31.40;;;;;;5051207;28;20174;-68
2022/07/05 08:03:57;;;;;;;12.70;5.10;;;23.00;30.60;;;;;;5046562;28;20283;-67
2022/07/05 08:06:22;;;;;;;12.37;4.73;;;23.40;30.00;;;;;;5045018;28;20622;-68
2022/07/05 08:08:48;;;;;;;14.30;4.40;;;22.90;31.30;;;;;;5051009;28;20194;-68
2022/07/05 08:11:14;;;;;;;5.67;4.00;;;23.30;31.30;;;;;;5050997;28;20179;-68
2022/07/05 08:13:42;;;;;;;9.07;4.00;;;23.70;30.20;;;;;;5035640;28;20203;-67
2022/07/05 08:16:08;;;;;;;6.30;4.20;;;23.20;30.20;;;;;;5037359;28;20424;-67
2022/07/05 08:21:31;;;;;;;12.10;4.30;;;23.10;30.30;;;;;;5048184;28;20429;-68
2022/07/05 08:24:01;;;;;;;6.60;3.97;;;23.80;28.80;;;;;;5050603;28;20429;-68
2022/07/05 08:26:28;;;;;;;5.93;4.23;;;24.40;28.50;;;;;;5051148;28;20547;-68
2022/07/05 08:28:54;;;;;;;6.37;4.33;;;24.30;29.00;;;;;;5050930;28;20406;-67
2022/07/05 08:31:20;;;;;;;4.70;4.00;;;24.80;27.90;;;;;;5050470;28;20459;-68
2022/07/05 08:33:47;;;;;;;9.30;4.13;;;25.10;27.60;;;;;;5050671;28;20457;-67
2022/07/05 08:36:13;;;;;;;11.03;3.70;;;24.40;28.60;;;;;;5050698;28;20487;-68
2022/07/05 08:38:38;;;;;;;10.90;4.50;;;24.90;28.00;;;;;;5040702;28;20436;-68
2022/07/05 08:41:09;;;;;;;10.23;3.93;;;24.90;27.50;;;;;;5030838;28;20168;-67
2022/07/05 08:43:39;;;;;;;9.40;4.53;;;24.10;28.70;;;;;;5050695;28;20567;-68
2022/07/05 08:46:08;;;;;;;13.77;4.13;;;24.50;29.20;;;;;;5050909;28;20464;-68
2022/07/05 08:48:41;;;;;;;4.93;3.63;;;24.80;28.60;;;;;;5049216;28;20402;-68
2022/07/05 08:51:20;;;;;;;4.73;3.90;;;25.00;26.70;;;;;;5048625;28;20403;-67
2022/07/05 08:53:47;;;;;;;8.17;3.80;;;23.70;28.60;;;;;;5049215;28;20478;-67
2022/07/05 08:56:13;;;;;;;4.90;3.70;;;23.90;29.10;;;;;;5050772;28;20444;-68
2022/07/05 08:58:40;;;;;;;4.77;3.80;;;24.10;27.90;;;;;;5048020;28;20426;-68
2022/07/05 09:01:06;;;;;;;6.23;3.60;;;24.10;27.80;;;;;;5050187;28;20425;-68
2022/07/05 09:03:47;;;;;;;11.00;4.13;;;24.40;26.70;;;;;;5050654;28;20441;-68
2022/07/05 09:06:15;;;;;;;8.13;3.93;;;24.60;26.60;;;;;;5050688;28;20402;-68
2022/07/05 09:08:41;;;;;;;4.73;3.73;;;25.00;27.30;;;;;;5032200;28;20528;-68
2022/07/05 09:11:09;;;;;;;4.63;3.50;;;25.20;26.20;;;;;;5050556;28;20489;-68
2022/07/05 09:13:37;;;;;;;15.03;4.00;;;24.90;26.90;;;;;;5050723;28;20694;-68
2022/07/05 09:16:03;;;;;;;4.67;3.67;;;24.90;26.10;;;;;;5049108;28;20410;-68
2022/07/05 09:18:54;;;;;;;6.57;3.63;;;25.30;27.40;;;;;;5030898;28;20921;-68
2022/07/05 09:21:24;;;;;;;4.37;3.53;;;25.50;24.70;;;;;;5030500;28;20444;-68
2022/07/05 09:24:00;;;;;;;6.03;3.70;;;25.40;24.70;;;;;;5030544;28;20926;-68
2022/07/05 09:26:35;;;;;;;6.00;3.90;;;24.60;26.40;;;;;;5031193;28;20461;-68
2022/07/05 09:29:03;;;;;;;8.10;4.10;;;24.30;28.70;;;;;;5030777;28;20415;-68
2022/07/05 09:31:33;;;;;;;5.83;3.80;;;24.90;27.00;;;;;;5030427;28;20411;-68
2022/07/05 09:34:09;;;;;;;7.20;4.47;;;24.90;26.10;;;;;;5030352;28;20458;-68
2022/07/05 09:36:58;;;;;;;13.00;3.90;;;25.30;26.00;;;;;;5013315;28;20444;-68
2022/07/05 09:39:29;;;;;;;10.60;3.90;;;25.20;25.70;;;;;;5053791;28;20414;-68
2022/07/05 09:42:23;;;;;;;4.77;3.43;;;25.40;26.00;;;;;;5035710;28;20417;-68
2022/07/05 09:44:50;;;;;;;5.00;3.40;;;26.10;25.90;;;;;;5053881;28;20417;-68
2022/07/05 09:47:18;;;;;;;5.83;3.90;;;26.70;23.70;;;;;;5054284;28;20445;-68
2022/07/05 09:49:47;;;;;;;6.37;3.67;;;26.10;24.00;;;;;;5053346;28;20418;-68
2022/07/05 09:52:35;;;;;;;4.43;3.43;;;26.10;24.90;;;;;;5053392;28;20461;-68
2022/07/05 09:55:18;;;;;;;10.20;3.97;;;25.90;24.40;;;;;;5035846;28;20426;-68
2022/07/05 09:57:46;;;;;;;6.93;4.37;;;25.90;24.10;;;;;;5050948;28;20560;-66
2022/07/05 10:00:19;;;;;;;5.57;3.30;;;25.80;23.90;;;;;;5051825;28;20434;-67
2022/07/05 10:02:50;;;;;;;13.13;3.40;;;25.60;24.80;;;;;;5045407;28;21047;-67
2022/07/05 10:05:21;;;;;;;4.87;3.40;;;25.50;23.00;;;;;;5042795;28;20423;-67
2022/07/05 10:07:51;;;;;;;5.73;3.70;;;26.00;25.60;;;;;;5050421;28;20440;-68
2022/07/05 10:10:22;;;;;;;8.87;3.77;;;26.70;22.70;;;;;;5052059;28;20495;-68
2022/07/05 10:12:50;;;;;;;8.60;3.87;;;27.30;23.80;;;;;;5050921;28;20503;-68
2022/07/05 10:15:24;;;;;;;7.90;3.30;;;26.90;21.70;;;;;;5052269;28;20462;-68
2022/07/05 10:17:52;;;;;;;3.33;2.70;;;27.50;17.80;;;;;;5051154;28;20829;-68
2022/07/05 10:20:53;;;;;;;8.43;3.00;;;26.80;16.80;;;;;;5051705;28;20458;-68
2022/07/05 10:23:19;;;;;;;7.27;2.90;;;25.70;20.10;;;;;;4952684;29;20505;-68
2022/07/05 10:25:50;;;;;;;4.00;2.60;;;25.40;18.50;;;;;;4951911;29;20464;-68
2022/07/05 10:28:21;;;;;;;4.47;2.67;;;25.90;18.60;;;;;;4950157;29;20473;-69
2022/07/05 10:30:49;;;;;;;4.07;2.80;;;26.20;20.10;;;;;;4949923;29;20526;-68
2022/07/05 10:33:20;;;;;;;3.60;3.07;;;26.80;19.40;;;;;;4951077;29;20485;-68
2022/07/05 10:35:46;;;;;;;5.00;2.90;;;27.30;19.00;;;;;;4951087;29;20538;-69
2022/07/05 10:38:13;;;;;;;3.10;2.90;;;27.60;20.10;;;;;;4950829;29;20518;-69
2022/07/05 10:40:42;;;;;;;11.63;2.90;;;27.80;18.70;;;;;;4947231;29;20463;-69
2022/07/05 10:43:10;;;;;;;4.10;3.00;;;28.50;19.10;;;;;;4950534;29;20458;-69
2022/07/05 10:45:56;;;;;;;6.70;3.00;;;28.80;19.00;;;;;;4950315;28;20446;-69
2022/07/05 10:48:23;;;;;;;2.90;2.67;;;28.40;16.80;;;;;;4942503;28;20442;-69
2022/07/05 10:51:14;;;;;;;2.77;2.60;;;27.60;18.20;;;;;;4951835;29;20972;-69
2022/07/05 10:53:40;;;;;;;7.07;2.90;;;27.00;19.90;;;;;;4948750;29;20533;-68
2022/07/05 10:56:05;;;;;;;5.57;3.00;;;27.00;20.60;;;;;;4948621;29;20743;-69
2022/07/05 10:58:47;;;;;;;8.80;2.70;;;27.20;18.90;;;;;;4987941;28;20246;-68
2022/07/05 11:01:15;;;;;;;3.00;2.70;;;27.00;18.50;;;;;;5050741;28;20175;-69
2022/07/05 11:03:43;;;;;;;9.50;2.70;;;26.70;18.20;;;;;;5052025;28;20850;-69
2022/07/05 11:06:19;;;;;;;6.73;2.60;;;26.90;18.70;;;;;;5052381;28;20402;-69
2022/07/05 11:09:00;;;;;;;4.37;2.60;;;27.60;17.20;;;;;;5048862;28;20725;-69
2022/07/05 11:11:33;;;;;;;4.97;3.10;;;26.80;17.80;;;;;;5046118;28;20433;-69
2022/07/05 11:14:00;;;;;;;9.00;3.37;;;26.40;18.40;;;;;;5051241;28;20560;-70
2022/07/05 11:16:30;;;;;;;6.53;3.20;;;26.90;19.00;;;;;;5051640;28;20468;-69
2022/07/05 11:19:18;;;;;;;3.20;2.70;;;27.60;17.10;;;;;;5051458;28;20827;-69
2022/07/05 11:22:04;;;;;;;3.67;2.43;;;27.60;16.70;;;;;;5049279;28;20927;-69
2022/07/05 11:24:35;;;;;;;4.10;2.40;;;27.70;16.00;;;;;;5047018;28;20438;-69
2022/07/05 11:27:03;;;;;;;5.50;2.50;;;27.60;16.20;;;;;;5050891;28;20422;-69
2022/07/05 11:29:50;;;;;;;5.57;2.37;;;29.00;16.80;;;;;;5051007;28;20932;-69
2022/07/05 11:32:28;;;;;;;3.20;2.60;;;29.40;14.30;;;;;;5050036;28;20417;-69
2022/07/05 11:34:57;;;;;;;4.93;2.70;;;28.20;14.90;;;;;;5033976;28;20418;-69
2022/07/05 11:37:24;;;;;;;4.83;2.70;;;27.90;16.00;;;;;;5051994;28;20406;-69
2022/07/05 11:40:11;;;;;;;13.13;3.00;;;27.70;16.40;;;;;;5051157;28;20556;-70
2022/07/05 11:42:39;;;;;;;6.67;2.73;;;28.30;15.40;;;;;;5042606;28;20454;-70
2022/07/05 11:45:09;;;;;;;3.83;2.37;;;29.80;15.90;;;;;;5048330;28;20971;-69
2022/07/05 11:47:35;;;;;;;4.70;2.30;;;31.70;15.50;;;;;;5040660;28;20944;-70
2022/07/05 11:50:01;;;;;;;2.77;2.10;;;31.80;12.00;;;;;;5046211;28;20407;-69
2022/07/05 11:52:32;;;;;;;2.93;2.23;;;33.00;10.70;;;;;;5050422;28;20458;-69
2022/07/05 11:54:59;;;;;;;6.03;2.40;;;31.00;12.00;;;;;;5048163;28;20434;-69
2022/07/05 11:57:25;;;;;;;7.40;2.43;;;30.60;12.60;;;;;;5051352;28;20413;-70
2022/07/05 11:59:51;;;;;;;4.50;2.33;;;29.80;12.50;;;;;;5051301;28;20408;-70
2022/07/05 12:02:17;;;;;;;3.80;2.27;;;28.70;14.20;;;;;;5051172;28;20402;-69
2022/07/05 12:04:51;;;;;;;2.90;2.33;;;28.30;14.60;;;;;;5049090;28;20933;-68
2022/07/05 12:07:27;;;;;;;4.60;2.53;;;28.20;15.30;;;;;;5050393;28;20456;-70
2022/07/05 12:12:43;;;;;;;4.57;2.80;;;29.00;14.40;;;;;;5047087;28;20506;-70
2022/07/05 12:15:16;;;;;;;3.67;2.60;;;28.80;14.90;;;;;;5047647;28;21101;-70
2022/07/05 12:17:44;;;;;;;8.70;2.70;;;29.20;13.50;;;;;;5050962;28;20421;-69
2022/07/05 12:20:12;;;;;;;2.63;2.43;;;28.30;13.70;;;;;;5051174;28;20932;-69
2022/07/05 12:22:43;;;;;;;2.60;2.37;;;29.00;14.70;;;;;;5048723;28;20450;-70
2022/07/05 12:25:16;;;;;;;5.00;2.67;;;29.10;15.40;;;;;;5050746;28;20428;-70
2022/07/05 12:27:43;;;;;;;8.00;2.50;;;30.20;13.10;;;;;;5046119;28;20471;-70
2022/07/05 12:30:10;;;;;;;2.77;2.53;;;31.20;13.50;;;;;;5050419;28;20414;-70
2022/07/05 12:32:54;;;;;;;5.40;2.37;;;32.60;11.60;;;;;;5048700;28;20476;-69
2022/07/05 12:35:38;;;;;;;6.63;2.30;;;33.30;11.60;;;;;;5050188;28;20447;-70
2022/07/05 12:38:06;;;;;;;3.47;2.27;;;33.00;11.90;;;;;;5050285;28;20430;-70
2022/07/05 12:40:32;;;;;;;4.50;2.70;;;32.20;11.50;;;;;;5051144;28;20398;-71
2022/07/05 12:43:09;;;;;;;3.73;2.47;;;32.30;11.20;;;;;;5050869;28;20468;-71
2022/07/05 12:45:36;;;;;;;6.50;2.47;;;32.80;12.70;;;;;;5049767;28;20561;-70
2022/07/05 12:48:07;;;;;;;3.10;2.30;;;33.40;12.50;;;;;;5045624;28;20537;-69
2022/07/05 12:50:50;;;;;;;3.10;2.37;;;32.40;10.10;;;;;;5050210;28;20969;-69
2022/07/05 12:58:53;;;;;;;6.83;2.50;;;30.30;12.90;;;;;;5041457;28;20460;-72
2022/07/05 13:01:31;;;;;;;6.70;2.60;;;31.10;13.90;;;;;;5047527;28;20445;-72